Airport View

Enter AWOS ICAO identifier for current METAR.

ex. KFNL

KLGA 262351Z 28014KT 10SM BKN060 06/M04 A2978 RMK AO2 SLP086 T00611044 10078 20061 52009

27 Jan 2020 00:42

Phone: 718-672-6317

Other Area AWOS: KNYC - KJRB - KJFK - KTEB

TAF KLGA 262324Z 2700/2806 30012G16KT P6SM BKN050 FM270100 28011KT P6SM SCT045 BKN060 FM270300 27010KT P6SM SCT040 SCT070 SCT100 FM271500 28015G22KT P6SM BKN040 FM272200 29012KT P6SM BKN080